Time;durP1;ratioP1;P1;durP2;ratioP2;P2;SDS_P1;SDS_P2;PMS_P1;PMS_P2;Temp;Humidity;BMP_temperature;BMP_pressure;BME280_temperature;BME280_humidity;BME280_pressure;Samples;Min_cycle;Max_cycle;Signal;HPM_P1;HPM_P2
2023/01/21 00:01:14;;;;;;;21.85;11.02;;;;;;;4.94;94.39;99681.41;5089271;28;20381;-27
2023/01/21 00:03:40;;;;;;;19.48;9.88;;;;;;;4.75;95.03;99685.53;5070781;28;20032;-28
2023/01/21 00:06:06;;;;;;;16.83;9.15;;;;;;;4.64;96.16;99681.56;5070867;28;20035;-28
2023/01/21 00:08:31;;;;;;;17.42;9.27;;;;;;;4.57;95.56;99667.47;5070650;28;20142;-27
2023/01/21 00:11:04;;;;;;;17.45;8.82;;;;;;;4.47;96.33;99690.72;5088738;28;20068;-27
2023/01/21 00:13:29;;;;;;;12.32;7.32;;;;;;;4.37;98.22;99693.69;5072881;28;20032;-29
2023/01/21 00:15:54;;;;;;;13.70;7.15;;;;;;;4.53;97.02;99689.97;5092737;28;20411;-29
2023/01/21 00:18:20;;;;;;;15.07;6.50;;;;;;;4.90;96.57;99698.63;5092742;28;20020;-29
2023/01/21 00:20:45;;;;;;;16.65;7.88;;;;;;;4.46;96.10;99670.63;5092714;28;20065;-27
2023/01/21 00:23:11;;;;;;;18.92;9.30;;;;;;;4.37;97.35;99694.53;5092756;28;20027;-26
2023/01/21 00:25:37;;;;;;;16.17;8.07;;;;;;;4.68;96.28;99680.19;5057305;28;20039;-28
2023/01/21 00:28:02;;;;;;;14.82;7.97;;;;;;;4.87;93.44;99701.69;5092823;28;20024;-28
2023/01/21 00:30:29;;;;;;;17.30;8.73;;;;;;;4.51;94.78;99676.16;5092425;28;20472;-33
2023/01/21 00:32:54;;;;;;;18.48;8.80;;;;;;;4.90;93.67;99693.34;5092643;28;20572;-27
2023/01/21 00:35:20;;;;;;;22.40;9.90;;;;;;;4.76;93.70;99693.25;5091912;28;20072;-31
2023/01/21 00:37:45;;;;;;;21.67;9.90;;;;;;;4.39;94.63;99696.94;5074273;28;20431;-29
2023/01/21 00:40:11;;;;;;;16.63;7.95;;;;;;;4.16;96.82;99712.94;5073532;28;20035;-29
2023/01/21 00:42:36;;;;;;;15.00;7.53;;;;;;;4.32;95.87;99678.41;5091534;28;20174;-28
2023/01/21 00:45:02;;;;;;;19.92;8.38;;;;;;;4.43;94.24;99693.78;5092506;28;20106;-31
2023/01/21 00:47:27;;;;;;;16.25;7.78;;;;;;;4.18;94.73;99672.16;5091910;28;20105;-27
2023/01/21 00:49:53;;;;;;;19.48;8.25;;;;;;;3.95;95.17;99682.88;5073822;28;20429;-30
2023/01/21 00:52:18;;;;;;;15.05;7.50;;;;;;;3.61;96.26;99663.19;5091501;28;20481;-29
2023/01/21 00:54:44;;;;;;;17.23;7.20;;;;;;;3.62;96.21;99704.38;5091701;28;20107;-27
2023/01/21 00:57:09;;;;;;;15.30;7.00;;;;;;;3.52;96.46;99703.84;5091668;28;20115;-29
2023/01/21 00:59:35;;;;;;;14.05;7.55;;;;;;;3.12;96.56;99726.97;5072942;28;20392;-26
2023/01/21 01:02:00;;;;;;;14.50;7.80;;;;;;;2.99;96.51;99697.78;5090674;28;20035;-27
2023/01/21 01:04:25;;;;;;;12.18;5.60;;;;;;;3.38;96.06;99707.28;5088405;28;20370;-28
2023/01/21 01:06:51;;;;;;;11.95;5.43;;;;;;;3.49;94.83;99698.09;5072813;28;20123;-27
2023/01/21 01:09:16;;;;;;;9.48;5.25;;;;;;;3.54;94.76;99711.56;5090961;28;20085;-29
2023/01/21 01:11:42;;;;;;;11.95;5.38;;;;;;;3.51;96.14;99689.00;5092003;28;20552;-27
2023/01/21 01:14:07;;;;;;;9.50;5.35;;;;;;;3.63;95.63;99708.63;5091494;28;20028;-28
2023/01/21 01:16:33;;;;;;;10.13;5.60;;;;;;;3.41;98.20;99714.81;5092045;28;20121;-28
2023/01/21 01:18:58;;;;;;;11.57;5.43;;;;;;;3.51;97.35;99699.56;5091330;28;20581;-28
2023/01/21 01:21:24;;;;;;;13.05;6.10;;;;;;;3.22;97.74;99690.63;5090784;28;20032;-29
2023/01/21 01:23:59;;;;;;;13.57;6.20;;;;;;;3.28;98.89;99727.81;5072148;28;20511;-29
2023/01/21 01:26:25;;;;;;;32.60;15.77;;;;;;;3.18;100.00;99680.63;5091466;28;20082;-29
2023/01/21 01:28:51;;;;;;;23.08;11.65;;;;;;;3.21;100.00;99714.56;5090921;28;20024;-28
2023/01/21 01:31:18;;;;;;;15.98;6.97;;;;;;;3.25;100.00;99705.28;5090812;28;20036;-28
2023/01/21 01:33:44;;;;;;;15.13;8.00;;;;;;;3.57;98.71;99693.53;5090775;28;20118;-28
2023/01/21 01:36:18;;;;;;;17.90;9.20;;;;;;;3.62;97.41;99696.47;5090869;28;20533;-28
2023/01/21 01:38:44;;;;;;;28.23;14.18;;;;;;;3.73;98.27;99691.72;5072661;28;20423;-29
2023/01/21 01:41:31;;;;;;;20.88;10.73;;;;;;;4.03;96.17;99687.25;5090898;28;20569;-27
2023/01/21 01:44:01;;;;;;;20.77;11.30;;;;;;;4.21;95.06;99690.28;5072987;28;20523;-27
2023/01/21 01:46:29;;;;;;;21.15;10.82;;;;;;;4.14;95.25;99693.84;5090593;28;20036;-30
2023/01/21 01:49:18;;;;;;;16.65;8.80;;;;;;;4.08;94.38;99699.88;5090442;28;20063;-28
2023/01/21 01:51:56;;;;;;;16.05;8.45;;;;;;;3.81;95.66;99699.53;5090666;28;20142;-29
2023/01/21 01:54:28;;;;;;;19.23;8.23;;;;;;;3.48;97.68;99692.03;5090473;28;20055;-28
2023/01/21 01:56:58;;;;;;;13.68;7.32;;;;;;;3.76;96.36;99662.34;5090134;28;20130;-26
2023/01/21 01:59:24;;;;;;;17.38;8.85;;;;;;;3.37;98.92;99687.19;5090130;28;20085;-31
2023/01/21 02:01:49;;;;;;;16.42;8.88;;;;;;;3.06;100.00;99690.78;5089913;28;20032;-30
2023/01/21 02:04:28;;;;;;;16.67;8.98;;;;;;;2.67;100.00;99691.78;5082394;28;20032;-27
2023/01/21 02:06:54;;;;;;;20.25;10.48;;;;;;;2.74;100.00;99698.00;5071841;28;20108;-27
2023/01/21 02:09:20;;;;;;;18.65;10.02;;;;;;;3.09;100.00;99690.44;5090300;28;20122;-27
2023/01/21 02:11:46;;;;;;;17.80;9.40;;;;;;;3.43;100.00;99678.56;5089623;28;20144;-28
2023/01/21 02:14:12;;;;;;;16.50;9.30;;;;;;;3.50;99.33;99663.66;5072189;28;20587;-28
2023/01/21 02:16:56;;;;;;;18.92;10.40;;;;;;;3.42;100.00;99690.91;5071673;28;20097;-29
2023/01/21 02:19:43;;;;;;;20.15;10.50;;;;;;;3.20;100.00;99697.09;5090012;28;20052;-30
2023/01/21 02:22:22;;;;;;;14.05;8.88;;;;;;;3.42;100.00;99684.84;5089619;28;20024;-30
2023/01/21 02:25:22;;;;;;;15.27;8.15;;;;;;;3.48;100.00;99692.03;5090004;28;20058;-31
2023/01/21 02:28:25;;;;;;;12.93;7.53;;;;;;;3.33;100.00;99707.00;5088802;28;20032;-32
2023/01/21 02:30:57;;;;;;;13.00;8.13;;;;;;;3.54;100.00;99687.84;5085631;28;20097;-29
2023/01/21 02:33:31;;;;;;;17.33;8.82;;;;;;;3.62;100.00;99678.00;5071485;28;20031;-28
2023/01/21 02:36:02;;;;;;;17.55;8.95;;;;;;;3.45;99.54;99689.72;5089170;28;20131;-28
2023/01/21 02:38:39;;;;;;;18.65;9.45;;;;;;;3.44;100.00;99688.09;5071833;28;20059;-27
2023/01/21 02:41:22;;;;;;;23.00;11.95;;;;;;;3.55;99.61;99665.75;5089715;28;20107;-29
2023/01/21 02:44:15;;;;;;;20.70;10.57;;;;;;;3.28;100.00;99661.94;5071873;28;20502;-30
2023/01/21 02:46:49;;;;;;;19.08;10.35;;;;;;;3.19;100.00;99638.31;5089874;28;20023;-26
2023/01/21 02:49:22;;;;;;;19.15;10.00;;;;;;;3.30;100.00;99654.66;5071323;28;20024;-29
2023/01/21 02:51:48;;;;;;;18.10;10.40;;;;;;;3.13;100.00;99665.38;5089631;28;20385;-29
2023/01/21 02:54:34;;;;;;;19.25;9.98;;;;;;;2.89;100.00;99684.03;5071559;28;20035;-27
2023/01/21 02:57:00;;;;;;;55.03;21.38;;;;;;;3.21;100.00;99661.84;5089619;28;20046;-29
2023/01/21 02:59:26;;;;;;;95.97;34.40;;;;;;;3.36;100.00;99669.75;5089356;28;20020;-29
2023/01/21 03:02:17;;;;;;;16.17;9.60;;;;;;;3.05;100.00;99677.81;5071064;28;20032;-27
2023/01/21 03:05:24;;;;;;;17.63;9.15;;;;;;;3.20;100.00;99655.72;5070779;28;20118;-27
2023/01/21 03:07:52;;;;;;;17.52;9.75;;;;;;;2.75;100.00;99636.41;5089662;28;20499;-26
2023/01/21 03:10:26;;;;;;;15.65;8.02;;;;;;;3.05;100.00;99672.53;5089265;28;20028;-27
2023/01/21 03:13:04;;;;;;;16.00;8.15;;;;;;;3.22;99.34;99664.28;5071433;28;20039;-26
2023/01/21 03:18:28;;;;;;;19.17;9.05;;;;;;;3.18;97.00;99646.38;5089305;28;20390;-30
2023/01/21 03:20:58;;;;;;;16.52;8.15;;;;;;;3.12;97.05;99650.53;5089436;28;20088;-30
2023/01/21 03:23:31;;;;;;;19.33;8.32;;;;;;;3.16;95.81;99659.72;5089385;28;20059;-28
2023/01/21 03:25:59;;;;;;;15.13;7.97;;;;;;;2.91;97.18;99668.88;5071286;28;20035;-29
2023/01/21 03:28:28;;;;;;;15.18;7.97;;;;;;;2.54;97.18;99644.19;5089262;28;20039;-28
2023/01/21 03:31:01;;;;;;;15.60;7.78;;;;;;;2.53;97.70;99632.00;5089023;28;20043;-28
2023/01/21 03:33:32;;;;;;;19.02;9.75;;;;;;;2.68;98.35;99655.75;5089220;28;20024;-28
2023/01/21 03:36:05;;;;;;;15.57;7.85;;;;;;;2.30;98.25;99617.06;5088996;28;20496;-27
2023/01/21 03:38:36;;;;;;;20.77;9.60;;;;;;;2.66;98.42;99663.84;5089351;28;20063;-28
2023/01/21 03:41:23;;;;;;;16.40;8.60;;;;;;;2.50;98.44;99662.13;5089056;28;20051;-27
2023/01/21 03:43:50;;;;;;;16.27;7.50;;;;;;;2.31;98.71;99660.81;5070925;28;20024;-27
2023/01/21 03:46:19;;;;;;;14.63;7.57;;;;;;;2.56;98.17;99673.78;5071039;28;20028;-27
2023/01/21 03:48:56;;;;;;;18.90;8.43;;;;;;;2.80;97.48;99668.31;5073638;28;20028;-26
2023/01/21 03:51:45;;;;;;;16.95;8.00;;;;;;;1.92;100.00;99639.81;5092978;28;20583;-27
2023/01/21 03:54:10;;;;;;;17.65;8.90;;;;;;;2.04;99.80;99632.38;5093198;28;20028;-28
2023/01/21 03:56:36;;;;;;;19.13;9.60;;;;;;;2.46;98.74;99652.16;5075012;28;20508;-30
2023/01/21 03:59:01;;;;;;;25.35;11.07;;;;;;;2.51;98.93;99665.59;5074734;28;20029;-26
2023/01/21 04:01:26;;;;;;;19.50;8.25;;;;;;;2.59;97.65;99658.44;5092823;28;20468;-27
2023/01/21 04:03:52;;;;;;;14.93;8.07;;;;;;;2.52;97.40;99646.19;5093161;28;20548;-26
2023/01/21 04:06:20;;;;;;;14.25;7.60;;;;;;;2.12;99.16;99671.75;5074518;28;20031;-27
2023/01/21 04:08:46;;;;;;;15.32;7.93;;;;;;;2.50;99.30;99658.69;5074719;28;20024;-25
2023/01/21 04:11:11;;;;;;;14.30;8.27;;;;;;;2.36;99.13;99640.03;5092796;28;20096;-30
2023/01/21 04:13:37;;;;;;;15.15;7.75;;;;;;;2.50;98.02;99635.00;5074427;28;20020;-27
2023/01/21 04:16:02;;;;;;;17.00;10.48;;;;;;;2.30;99.16;99669.69;5092333;28;20107;-29
2023/01/21 04:18:28;;;;;;;13.60;8.30;;;;;;;2.14;100.00;99654.00;5092601;28;20039;-29
2023/01/21 04:20:53;;;;;;;16.25;9.75;;;;;;;2.49;98.22;99675.47;5092530;28;20031;-28
2023/01/21 04:23:19;;;;;;;17.00;9.38;;;;;;;2.55;98.53;99688.75;5092528;28;20024;-27
2023/01/21 04:25:47;;;;;;;16.92;8.40;;;;;;;2.10;99.23;99679.00;5092899;28;20513;-29
2023/01/21 04:28:12;;;;;;;13.75;7.78;;;;;;;2.35;98.34;99680.50;5092596;28;20069;-27
2023/01/21 04:30:38;;;;;;;15.40;8.13;;;;;;;2.53;98.11;99689.91;5092411;28;20040;-28
2023/01/21 04:33:03;;;;;;;14.02;8.43;;;;;;;2.10;98.51;99689.53;5092183;28;20028;-28
2023/01/21 04:35:29;;;;;;;11.00;6.50;;;;;;;1.68;99.58;99685.47;5091676;28;20062;-28
2023/01/21 04:37:54;;;;;;;14.80;7.43;;;;;;;2.00;98.56;99701.09;5092510;28;20075;-28
2023/01/21 04:40:19;;;;;;;14.00;7.65;;;;;;;2.08;97.09;99683.63;5092180;28;20127;-29
2023/01/21 04:42:45;;;;;;;14.75;8.40;;;;;;;2.12;97.72;99698.88;5092026;28;20380;-26
2023/01/21 04:45:10;;;;;;;17.38;10.07;;;;;;;2.45;97.84;99734.72;5074002;28;20086;-27
2023/01/21 04:47:40;;;;;;;14.70;8.05;;;;;;;2.42;97.25;99731.44;5091901;28;20074;-29
2023/01/21 04:50:06;;;;;;;16.38;8.23;;;;;;;2.22;97.75;99703.94;5073622;28;20388;-26
2023/01/21 04:52:31;;;;;;;15.95;8.15;;;;;;;2.22;99.48;99694.22;5073913;28;20035;-26
2023/01/21 04:54:56;;;;;;;14.75;8.63;;;;;;;2.27;97.54;99727.09;5092332;28;20031;-27
2023/01/21 04:57:22;;;;;;;19.17;11.27;;;;;;;2.36;98.02;99732.13;5073658;28;20028;-28
2023/01/21 04:59:47;;;;;;;63.75;42.13;;;;;;;2.48;100.00;99735.19;5091288;28;20028;-25
2023/01/21 05:02:13;;;;;;;43.80;25.15;;;;;;;2.34;100.00;99733.31;5091826;28;20523;-26
2023/01/21 05:04:38;;;;;;;18.35;10.68;;;;;;;2.63;100.00;99731.81;5073331;28;20035;-27
2023/01/21 05:07:04;;;;;;;75.63;35.53;;;;;;;2.73;100.00;99727.94;5091882;28;20024;-27
2023/01/21 05:09:29;;;;;;;74.57;32.13;;;;;;;2.41;100.00;99695.59;5073473;28;20054;-27
2023/01/21 05:11:55;;;;;;;19.08;9.35;;;;;;;2.55;100.00;99719.50;5091700;28;20093;-27
2023/01/21 05:14:20;;;;;;;33.55;16.77;;;;;;;2.37;100.00;99723.25;5073492;28;20410;-26
2023/01/21 05:16:46;;;;;;;86.95;47.53;;;;;;;2.32;100.00;99706.34;5091835;28;20036;-28
2023/01/21 05:19:11;;;;;;;18.33;9.48;;;;;;;2.63;100.00;99727.34;5091661;28;20081;-27
2023/01/21 05:21:36;;;;;;;17.20;8.77;;;;;;;2.24;100.00;99667.75;5091231;28;20115;-28
2023/01/21 05:24:02;;;;;;;17.75;9.45;;;;;;;2.58;100.00;99734.97;5091560;28;20024;-31
2023/01/21 05:26:27;;;;;;;100.13;50.53;;;;;;;2.69;100.00;99721.38;5091413;28;20031;-29
2023/01/21 05:28:53;;;;;;;44.45;26.35;;;;;;;2.63;100.00;99711.56;5073172;28;20051;-28
2023/01/21 05:31:18;;;;;;;72.05;55.75;;;;;;;2.58;100.00;99734.97;5090998;28;20023;-28
2023/01/21 05:33:45;;;;;;;57.08;36.00;;;;;;;2.47;100.00;99720.38;5090855;28;20028;-31
2023/01/21 05:36:11;;;;;;;22.48;13.23;;;;;;;2.44;100.00;99727.81;5069411;28;20091;-29
2023/01/21 05:38:37;;;;;;;16.13;9.55;;;;;;;2.65;100.00;99764.84;5070952;28;20412;-28
2023/01/21 05:41:04;;;;;;;23.67;12.80;;;;;;;2.57;100.00;99749.94;5069591;28;20059;-30
2023/01/21 05:43:29;;;;;;;26.88;13.00;;;;;;;2.70;100.00;99762.53;5070595;28;20036;-26
2023/01/21 05:45:55;;;;;;;21.77;12.05;;;;;;;2.66;100.00;99763.88;5070934;28;20029;-26
2023/01/21 05:48:21;;;;;;;19.52;11.18;;;;;;;2.79;100.00;99761.47;5070470;28;20028;-26
2023/01/21 05:50:47;;;;;;;21.48;11.32;;;;;;;2.95;100.00;99762.34;5069203;28;20100;-27
2023/01/21 05:53:14;;;;;;;18.92;10.27;;;;;;;2.70;100.00;99738.84;5070427;28;20028;-33
2023/01/21 05:55:39;;;;;;;38.65;22.30;;;;;;;2.81;100.00;99766.56;5070755;28;20043;-26
2023/01/21 05:58:05;;;;;;;32.10;18.67;;;;;;;2.80;100.00;99755.22;5070661;28;20021;-29
2023/01/21 06:00:30;;;;;;;52.03;29.55;;;;;;;2.72;100.00;99747.38;5070338;28;20028;-26
2023/01/21 06:02:58;;;;;;;117.65;51.13;;;;;;;2.88;100.00;99751.72;5070349;28;20039;-26
2023/01/21 06:05:23;;;;;;;25.00;14.88;;;;;;;2.98;100.00;99759.34;5070083;28;20023;-27
2023/01/21 06:07:49;;;;;;;33.90;19.98;;;;;;;2.85;100.00;99746.78;5070538;28;20032;-27
2023/01/21 06:10:15;;;;;;;22.27;12.80;;;;;;;2.70;100.00;99738.84;5069402;28;20024;-27
2023/01/21 06:12:40;;;;;;;40.45;22.92;;;;;;;2.84;100.00;99744.31;5070163;28;20032;-27
2023/01/21 06:15:06;;;;;;;19.48;10.55;;;;;;;3.03;100.00;99774.66;5070275;28;20020;-29
2023/01/21 06:17:31;;;;;;;28.70;19.73;;;;;;;3.09;100.00;99769.47;5069677;28;20503;-28
2023/01/21 06:19:57;;;;;;;16.55;9.40;;;;;;;3.15;100.00;99758.22;5068968;28;20024;-28
2023/01/21 06:22:22;;;;;;;17.85;11.45;;;;;;;3.19;100.00;99741.06;5070102;28;20387;-28
2023/01/21 06:24:48;;;;;;;18.88;11.13;;;;;;;3.34;100.00;99778.00;5070071;28;20082;-31
2023/01/21 06:27:13;;;;;;;16.48;11.57;;;;;;;3.20;100.00;99758.50;5068378;28;20021;-30
2023/01/21 06:29:38;;;;;;;18.85;10.38;;;;;;;3.38;100.00;99757.38;5068633;28;20028;-28
2023/01/21 06:32:04;;;;;;;16.27;8.32;;;;;;;3.46;100.00;99754.66;5068510;28;20039;-29
2023/01/21 06:34:30;;;;;;;13.55;7.68;;;;;;;3.63;100.00;99764.00;5068563;28;20036;-27
2023/01/21 06:36:55;;;;;;;14.13;6.30;;;;;;;3.73;100.00;99766.38;5086270;28;20104;-28
2023/01/21 06:39:20;;;;;;;12.88;7.00;;;;;;;3.89;100.00;99764.59;5088808;28;20023;-29
2023/01/21 06:41:46;;;;;;;13.10;6.00;;;;;;;3.97;100.00;99740.75;5071180;28;20028;-29
2023/01/21 06:44:11;;;;;;;15.48;5.35;;;;;;;4.28;100.00;99772.19;5089148;28;20024;-28
2023/01/21 06:46:37;;;;;;;19.08;9.05;;;;;;;4.61;100.00;99779.66;5089393;28;20031;-28
2023/01/21 06:49:02;;;;;;;16.73;5.70;;;;;;;4.77;100.00;99784.69;5070719;28;20027;-28
2023/01/21 06:51:28;;;;;;;13.65;7.15;;;;;;;4.85;100.00;99794.34;5089391;28;20023;-27
2023/01/21 06:53:53;;;;;;;14.55;7.60;;;;;;;4.94;100.00;99790.53;5089260;28;20027;-27
2023/01/21 06:56:20;;;;;;;15.80;8.07;;;;;;;5.24;100.00;99790.41;5071269;28;20028;-28
2023/01/21 06:58:46;;;;;;;16.55;6.97;;;;;;;5.46;100.00;99787.75;5089236;28;20028;-27
2023/01/21 07:01:12;;;;;;;13.45;8.00;;;;;;;5.60;100.00;99777.06;5070547;28;20123;-30
2023/01/21 07:03:37;;;;;;;12.07;6.68;;;;;;;5.68;100.00;99785.84;5065334;28;20039;-30
2023/01/21 07:06:03;;;;;;;13.65;6.55;;;;;;;5.96;100.00;99794.59;5089304;28;20028;-29
2023/01/21 07:08:28;;;;;;;23.20;11.23;;;;;;;5.92;100.00;99793.31;5089119;28;20032;-29
2023/01/21 07:10:54;;;;;;;11.75;6.15;;;;;;;5.76;100.00;99798.94;5089233;28;20450;-29
2023/01/21 07:13:19;;;;;;;12.75;7.40;;;;;;;5.69;100.00;99787.50;5089014;28;20462;-30
2023/01/21 07:15:45;;;;;;;11.23;6.03;;;;;;;5.60;100.00;99774.41;5088884;28;20016;-30
2023/01/21 07:18:10;;;;;;;16.35;7.00;;;;;;;5.85;100.00;99795.13;5088855;28;20024;-30
2023/01/21 07:20:37;;;;;;;11.32;5.72;;;;;;;5.97;100.00;99768.97;5089045;28;20024;-33
2023/01/21 07:23:03;;;;;;;10.18;4.88;;;;;;;6.31;100.00;99786.63;5064829;28;20077;-31
2023/01/21 07:25:28;;;;;;;9.55;4.72;;;;;;;6.28;100.00;99755.25;5088615;28;20020;-32
2023/01/21 07:27:54;;;;;;;14.70;6.07;;;;;;;6.51;100.00;99783.22;5088861;28;20017;-30
2023/01/21 07:30:20;;;;;;;13.07;6.03;;;;;;;6.48;100.00;99770.38;5070674;28;20024;-31
2023/01/21 07:32:46;;;;;;;12.13;4.55;;;;;;;6.67;100.00;99780.22;5070002;28;20036;-30
2023/01/21 07:35:11;;;;;;;9.30;4.28;;;;;;;6.54;100.00;99791.59;5088249;28;20461;-30
2023/01/21 07:37:37;;;;;;;10.45;4.70;;;;;;;6.30;100.00;99769.09;5086572;28;20032;-33
2023/01/21 07:40:02;;;;;;;11.60;4.60;;;;;;;6.59;100.00;99775.09;5088928;28;20472;-29
2023/01/21 07:42:28;;;;;;;10.13;4.55;;;;;;;6.71;100.00;99785.94;5070932;28;20046;-29
2023/01/21 07:44:54;;;;;;;12.98;5.40;;;;;;;7.04;100.00;99776.19;5070854;28;20060;-30
2023/01/21 07:47:20;;;;;;;14.02;6.07;;;;;;;6.94;100.00;99775.78;5088843;28;20035;-29
2023/01/21 07:49:48;;;;;;;12.30;6.25;;;;;;;6.74;100.00;99757.22;5070905;28;20032;-27
2023/01/21 07:52:13;;;;;;;14.55;7.47;;;;;;;6.88;100.00;99786.38;5089091;28;20123;-28
2023/01/21 07:54:38;;;;;;;13.05;6.07;;;;;;;6.84;100.00;99775.34;5089008;28;20139;-27
2023/01/21 07:57:04;;;;;;;19.08;8.32;;;;;;;7.20;100.00;99779.47;5070830;28;20058;-31
2023/01/21 07:59:29;;;;;;;23.00;9.38;;;;;;;7.05;100.00;99777.03;5070545;28;20024;-31
2023/01/21 08:01:56;;;;;;;17.98;11.25;;;;;;;7.21;100.00;99770.50;5088026;28;20510;-28
2023/01/21 08:04:22;;;;;;;38.50;15.65;;;;;;;7.16;100.00;99779.06;5085951;28;20024;-31
2023/01/21 08:06:49;;;;;;;20.13;8.20;;;;;;;7.37;100.00;99798.44;5088140;28;20111;-29
2023/01/21 08:09:15;;;;;;;37.17;14.80;;;;;;;7.50;100.00;99785.19;5064601;28;20025;-26
2023/01/21 08:11:42;;;;;;;49.38;16.45;;;;;;;7.56;100.00;99795.00;5085436;28;20032;-28
2023/01/21 08:14:08;;;;;;;42.53;15.60;;;;;;;7.61;100.00;99792.50;5088233;28;20034;-31
2023/01/21 08:16:33;;;;;;;136.18;34.55;;;;;;;7.59;100.00;99786.59;5088440;28;20442;-28
2023/01/21 08:18:59;;;;;;;67.65;18.85;;;;;;;7.65;100.00;99785.78;5088363;28;20042;-29
2023/01/21 08:21:24;;;;;;;51.28;17.08;;;;;;;7.65;100.00;99777.81;5087832;28;20020;-30
2023/01/21 08:23:50;;;;;;;70.60;23.38;;;;;;;7.92;100.00;99772.44;5088302;28;20422;-31
2023/01/21 08:26:15;;;;;;;163.70;49.13;;;;;;;8.09;100.00;99767.50;5088264;28;20066;-29
2023/01/21 08:28:41;;;;;;;94.72;32.75;;;;;;;8.00;100.00;99796.13;5088026;28;20073;-30
2023/01/21 08:31:10;;;;;;;36.78;14.98;;;;;;;8.22;100.00;99772.75;5087479;28;20430;-28
2023/01/21 08:33:36;;;;;;;157.75;54.05;;;;;;;8.26;100.00;99783.78;5087154;28;20056;-33
2023/01/21 08:36:04;;;;;;;19.48;11.25;;;;;;;8.22;100.00;99783.38;5090577;28;20086;-28
2023/01/21 08:38:31;;;;;;;17.83;8.93;;;;;;;8.42;100.00;99788.66;5090356;28;20081;-27
2023/01/21 08:40:57;;;;;;;11.50;4.95;;;;;;;8.64;100.00;99777.69;5090132;28;20028;-28
2023/01/21 08:43:23;;;;;;;9.63;5.85;;;;;;;8.52;100.00;99782.88;5089940;28;20052;-27
2023/01/21 08:45:48;;;;;;;9.75;5.65;;;;;;;8.50;100.00;99760.19;5090574;28;20506;-28
2023/01/21 08:48:14;;;;;;;10.77;5.60;;;;;;;8.59;100.00;99769.56;5089658;28;20016;-33
2023/01/21 08:50:39;;;;;;;10.55;4.68;;;;;;;8.94;100.00;99761.16;5090140;28;20107;-28
2023/01/21 08:53:05;;;;;;;18.17;6.72;;;;;;;9.01;100.00;99780.53;5090217;28;20102;-27
2023/01/21 08:55:30;;;;;;;11.30;4.47;;;;;;;9.29;100.00;99780.13;5089589;28;20117;-28
2023/01/21 08:57:57;;;;;;;8.48;4.00;;;;;;;9.29;100.00;99772.13;5090031;28;20783;-33
2023/01/21 09:00:23;;;;;;;14.27;5.85;;;;;;;9.31;100.00;99763.94;5072040;28;20085;-28
2023/01/21 09:02:49;;;;;;;15.77;7.65;;;;;;;9.37;98.86;99763.06;5090460;28;20024;-26
2023/01/21 09:05:15;;;;;;;13.57;6.63;;;;;;;9.45;98.51;99770.78;5090555;28;20411;-29
2023/01/21 09:07:41;;;;;;;11.40;4.88;;;;;;;9.30;97.99;99731.19;5087629;28;20046;-27
2023/01/21 09:10:07;;;;;;;33.33;16.58;;;;;;;9.53;97.22;99751.88;5090385;28;20476;-28
2023/01/21 09:12:33;;;;;;;20.15;11.57;;;;;;;9.54;98.02;99745.53;5090015;28;20031;-27
2023/01/21 09:14:58;;;;;;;14.50;9.60;;;;;;;9.66;98.37;99745.59;5063869;28;20403;-30
2023/01/21 09:17:24;;;;;;;10.52;5.78;;;;;;;9.87;97.18;99741.69;5089872;28;20055;-32
2023/01/21 09:19:49;;;;;;;18.98;10.10;;;;;;;9.97;97.40;99736.66;5090157;28;20028;-30
2023/01/21 09:22:15;;;;;;;13.50;6.50;;;;;;;9.90;96.95;99713.78;5089885;28;20024;-31
2023/01/21 09:24:40;;;;;;;13.07;6.18;;;;;;;9.96;96.53;99731.56;5089960;28;20039;-28
2023/01/21 09:27:07;;;;;;;8.00;3.90;;;;;;;10.08;96.24;99739.63;5089609;28;20522;-30
2023/01/21 09:29:33;;;;;;;13.82;6.90;;;;;;;10.07;96.04;99728.13;5087330;28;20032;-28
2023/01/21 09:31:58;;;;;;;52.60;33.00;;;;;;;10.58;96.00;99731.38;5090597;28;20412;-28
2023/01/21 09:34:24;;;;;;;12.18;7.25;;;;;;;10.64;95.42;99720.66;5090676;28;20063;-31
2023/01/21 09:36:50;;;;;;;31.48;19.77;;;;;;;10.70;93.76;99705.56;5072243;28;20055;-28
2023/01/21 09:39:15;;;;;;;8.05;4.00;;;;;;;10.27;95.29;99703.91;5090436;28;20022;-26
2023/01/21 09:41:45;;;;;;;13.85;5.72;;;;;;;10.26;97.14;99739.59;5072494;28;20407;-32
2023/01/21 09:44:30;;;;;;;10.93;6.35;;;;;;;9.83;99.66;99740.50;5072519;28;20747;-27
2023/01/21 09:47:15;;;;;;;13.68;8.23;;;;;;;9.53;100.00;99746.53;5089136;28;20037;-28
2023/01/21 09:49:46;;;;;;;12.70;7.97;;;;;;;9.28;100.00;99737.78;5090567;28;20509;-28
2023/01/21 09:52:17;;;;;;;7.20;3.47;;;;;;;9.39;100.00;99745.03;5090257;28;20043;-27
2023/01/21 09:54:42;;;;;;;12.43;8.27;;;;;;;9.46;100.00;99761.78;5072339;28;20423;-28
2023/01/21 09:57:37;;;;;;;12.90;7.20;;;;;;;9.40;100.00;99760.00;5090242;28;20039;-28
2023/01/21 10:00:14;;;;;;;13.15;7.20;;;;;;;9.58;100.00;99760.03;5072100;28;20024;-29
2023/01/21 10:03:03;;;;;;;12.13;6.20;;;;;;;9.67;100.00;99751.75;5090212;28;20073;-34
2023/01/21 10:05:34;;;;;;;22.77;13.43;;;;;;;9.64;100.00;99761.81;5090119;28;20169;-29
2023/01/21 10:07:59;;;;;;;20.25;12.70;;;;;;;9.48;100.00;99754.38;5071960;28;20036;-27
2023/01/21 10:10:45;;;;;;;12.95;5.75;;;;;;;9.59;100.00;99743.00;5090579;28;20039;-27
2023/01/21 10:13:41;;;;;;;15.38;7.00;;;;;;;9.55;100.00;99739.16;5089316;28;20032;-27
2023/01/21 10:16:28;;;;;;;21.80;11.65;;;;;;;9.62;100.00;99734.59;5069852;28;20032;-29
2023/01/21 10:18:56;;;;;;;22.00;13.20;;;;;;;9.56;100.00;99729.31;5071585;28;20663;-29
2023/01/21 10:21:28;;;;;;;17.48;8.43;;;;;;;9.74;100.00;99720.53;5071229;28;20051;-28
2023/01/21 10:24:15;;;;;;;14.40;6.05;;;;;;;9.92;100.00;99717.84;5071842;28;20036;-31
2023/01/21 10:26:43;;;;;;;18.95;10.07;;;;;;;9.77;100.00;99710.25;5071723;28;20123;-27
2023/01/21 10:29:16;;;;;;;17.98;8.15;;;;;;;9.80;100.00;99698.34;5090101;28;20035;-30
2023/01/21 10:31:45;;;;;;;30.25;16.42;;;;;;;9.72;100.00;99706.63;5071504;28;20504;-29
2023/01/21 10:34:18;;;;;;;27.08;15.57;;;;;;;9.71;100.00;99699.69;5071556;28;20036;-29
2023/01/21 10:37:17;;;;;;;21.25;10.35;;;;;;;9.61;100.00;99706.31;5089296;28;20056;-31
2023/01/21 10:40:08;;;;;;;16.63;9.20;;;;;;;9.59;100.00;99681.75;5089482;28;20484;-29
2023/01/21 10:43:05;;;;;;;15.95;6.65;;;;;;;9.51;100.00;99658.09;5071312;28;20024;-29
2023/01/21 10:45:39;;;;;;;18.65;9.57;;;;;;;9.73;100.00;99671.78;5089095;28;20047;-28
2023/01/21 10:48:18;;;;;;;37.03;18.13;;;;;;;9.89;100.00;99680.19;5089292;28;20028;-28
2023/01/21 10:50:55;;;;;;;39.17;21.27;;;;;;;10.29;100.00;99677.81;5089237;28;20043;-29
2023/01/21 10:53:58;;;;;;;54.00;23.35;;;;;;;10.35;100.00;99665.47;5070973;28;20031;-28
2023/01/21 10:56:58;;;;;;;23.15;11.57;;;;;;;10.88;100.00;99656.66;5088783;28;20060;-30
2023/01/21 10:59:29;;;;;;;74.88;35.38;;;;;;;10.92;100.00;99652.50;5052605;28;20055;-35
2023/01/21 11:02:09;;;;;;;66.00;33.38;;;;;;;10.85;100.00;99649.94;5068915;28;20028;-28
2023/01/21 11:04:39;;;;;;;36.50;20.55;;;;;;;10.66;100.00;99653.72;5069438;28;20103;-28
2023/01/21 11:07:09;;;;;;;24.38;12.70;;;;;;;10.54;100.00;99627.06;5050525;28;20524;-29
2023/01/21 11:09:39;;;;;;;13.73;7.22;;;;;;;10.37;100.00;99637.56;5068842;28;20031;-29
2023/01/21 11:12:04;;;;;;;11.85;7.30;;;;;;;10.33;100.00;99639.06;5068918;28;20033;-28
2023/01/21 11:14:30;;;;;;;15.90;7.80;;;;;;;10.75;100.00;99619.56;5071717;28;20043;-28
2023/01/21 11:16:56;;;;;;;10.82;4.97;;;;;;;10.84;100.00;99626.16;5085652;28;20020;-27
2023/01/21 11:19:24;;;;;;;14.10;5.75;;;;;;;11.30;100.00;99626.38;5088333;28;20035;-28
2023/01/21 11:22:00;;;;;;;13.40;4.22;;;;;;;10.92;100.00;99609.00;5070385;28;20252;-31
2023/01/21 11:24:26;;;;;;;14.13;6.18;;;;;;;10.76;100.00;99605.16;5070965;28;20035;-30
2023/01/21 11:26:55;;;;;;;13.57;3.60;;;;;;;10.61;100.00;99618.97;5088755;28;20089;-32
2023/01/21 11:29:22;;;;;;;11.40;3.70;;;;;;;10.68;100.00;99632.16;5069872;28;20030;-30
2023/01/21 11:32:21;;;;;;;10.32;4.90;;;;;;;11.34;100.00;99625.69;5070632;28;20075;-32
2023/01/21 11:34:50;;;;;;;8.07;3.00;;;;;;;11.58;100.00;99613.06;5043566;28;20032;-31
2023/01/21 11:37:25;;;;;;;9.43;3.97;;;;;;;11.53;100.00;99629.00;5087974;28;20109;-29